Time;durP1;ratioP1;P1;durP2;ratioP2;P2;SDS_P1;SDS_P2;PMS_P1;PMS_P2;Temp;Humidity;BMP_temperature;BMP_pressure;BME280_temperature;BME280_humidity;BME280_pressure;Samples;Min_cycle;Max_cycle;Signal;HPM_P1;HPM_P2
2022/12/22 03:27:43;;;;;;;;;;;;;;;;;;4975645;28;21026;-53
2022/12/22 03:30:09;;;;;;;;;;;;;;;;;;4998736;28;19918;-54
2022/12/22 03:32:34;;;;;;;;;;;;;;;;;;4998442;28;19925;-53
2022/12/22 03:35:00;;;;;;;;;;;;;;;;;;4980683;28;19926;-53
2022/12/22 03:37:26;;;;;;;;;;;;;;;;;;4979991;28;19923;-54
2022/12/22 03:39:52;;;;;;;;;;;;;;;;;;4982736;28;19926;-53
2022/12/22 03:47:47;;;;;;;;;;;;;;;;;;4977874;28;19936;-53
2022/12/22 03:50:13;;;;;;;;;;;;;;;;;;4993162;28;20008;-53
2022/12/22 03:52:39;;;;;;;;;;;;;;;;;;4992982;28;20728;-54
2022/12/22 03:55:05;;;;;;;;;;;;;;;;;;4976838;28;19948;-55
2022/12/22 03:57:31;;;;;;;;;;;;;;;;;;4974506;28;19926;-53
2022/12/22 03:59:57;;;;;;;;;;;;;;;;;;4972908;28;19918;-53
2022/12/22 04:02:23;;;;;;;;;;;;;;;;;;4977290;28;20405;-53
2022/12/22 04:04:48;;;;;;;;;;;;;;;;;;4945602;28;19941;-53
2022/12/22 04:07:14;;;;;;;;;;;;;;;;;;4974658;28;19927;-53
2022/12/22 04:12:53;;;;;;;;;;;;;;;;;;4979428;28;19956;-53
2022/12/22 04:15:11;;;;;;;;;;;;;;;;;;4970580;28;20410;-53
2022/12/22 04:17:36;;;;;;;;;;;;;;;;;;4980623;28;19917;-54
2022/12/22 04:20:02;;;;;;;;;;;;;;;;;;4994041;28;19967;-53
2022/12/22 04:22:28;;;;;;;;;;;;;;;;;;4998117;28;20014;-52
2022/12/22 04:24:54;;;;;;;;;;;;;;;;;;4984785;28;19999;-53
2022/12/22 04:27:20;;;;;;;;;;;;;;;;;;4983482;28;19930;-53
2022/12/22 04:29:46;;;;;;;;;;;;;;;;;;4974192;28;20331;-53
2022/12/22 04:32:12;;;;;;;;;;;;;;;;;;4978679;28;19932;-53
2022/12/22 04:34:37;;;;;;;;;;;;;;;;;;4988550;28;19926;-53
2022/12/22 04:37:03;;;;;;;;;;;;;;;;;;4992402;28;21547;-52
2022/12/22 04:39:29;;;;;;;;;;;;;;;;;;4968159;28;21254;-53
2022/12/22 04:41:55;;;;;;;;;;;;;;;;;;4978520;28;20024;-53
2022/12/22 04:44:21;;;;;;;;;;;;;;;;;;4979957;28;20377;-53
2022/12/22 04:46:47;;;;;;;;;;;;;;;;;;4988742;28;19922;-53
2022/12/22 04:49:13;;;;;;;;;;;;;;;;;;4988136;28;19924;-54
2022/12/22 04:51:39;;;;;;;;;;;;;;;;;;4982664;28;19930;-53
2022/12/22 04:54:05;;;;;;;;;;;;;;;;;;4988853;28;19991;-53
2022/12/22 04:56:30;;;;;;;;;;;;;;;;;;4992156;28;20347;-54
2022/12/22 04:58:56;;;;;;;;;;;;;;;;;;4978915;28;20008;-54
2022/12/22 05:01:22;;;;;;;;;;;;;;;;;;4985719;28;19925;-54
2022/12/22 05:03:48;;;;;;;;;;;;;;;;;;4969501;28;19971;-53
2022/12/22 05:06:14;;;;;;;;;;;;;;;;;;4990892;28;19926;-53
2022/12/22 05:08:40;;;;;;;;;;;;;;;;;;4950652;28;19971;-54
2022/12/22 05:11:06;;;;;;;;;;;;;;;;;;4972580;28;19937;-54
2022/12/22 05:13:31;;;;;;;;;;;;;;;;;;4979585;28;19922;-54
2022/12/22 05:15:57;;;;;;;;;;;;;;;;;;4980104;28;20293;-54
2022/12/22 05:18:23;;;;;;;;;;;;;;;;;;4971215;28;19926;-54
2022/12/22 05:20:49;;;;;;;;;;;;;;;;;;4972838;28;19925;-54
2022/12/22 05:23:15;;;;;;;;;;;;;;;;;;4969515;28;20440;-54
2022/12/22 05:25:41;;;;;;;;;;;;;;;;;;4962003;28;19921;-54
2022/12/22 05:28:07;;;;;;;;;;;;;;;;;;4972369;28;19925;-54
2022/12/22 05:30:33;;;;;;;;;;;;;;;;;;4958151;28;20912;-53
2022/12/22 05:32:58;;;;;;;;;;;;;;;;;;4987459;28;19929;-54
2022/12/22 05:35:24;;;;;;;;;;;;;;;;;;4982049;28;19984;-54
2022/12/22 05:37:50;;;;;;;;;;;;;;;;;;4974605;28;19957;-53
2022/12/22 05:40:16;;;;;;;;;;;;;;;;;;4977527;28;19986;-53
2022/12/22 05:42:42;;;;;;;;;;;;;;;;;;4973713;28;19921;-53
2022/12/22 05:45:08;;;;;;;;;;;;;;;;;;4965098;28;19926;-54
2022/12/22 05:47:34;;;;;;;;;;;;;;;;;;4993969;28;19925;-54
2022/12/22 05:50:00;;;;;;;;;;;;;;;;;;4981861;28;19922;-53
2022/12/22 05:52:25;;;;;;;;;;;;;;;;;;4986945;28;20093;-54
2022/12/22 05:54:51;;;;;;;;;;;;;;;;;;4989114;28;20459;-54
2022/12/22 05:57:17;;;;;;;;;;;;;;;;;;4974758;28;19925;-54
2022/12/22 05:59:43;;;;;;;;;;;;;;;;;;4977063;28;20014;-54
2022/12/22 06:02:09;;;;;;;;;;;;;;;;;;4967018;28;20288;-53
2022/12/22 06:04:35;;;;;;;;;;;;;;;;;;4960813;28;20017;-53
2022/12/22 06:07:01;;;;;;;;;;;;;;;;;;4990215;28;19921;-53
2022/12/22 06:09:26;;;;;;;;;;;;;;;;;;4960115;28;20568;-55
2022/12/22 06:11:52;;;;;;;;;;;;;;;;;;4955108;28;19937;-54
2022/12/22 06:14:18;;;;;;;;;;;;;;;;;;4938517;28;19926;-54
2022/12/22 06:16:44;;;;;;;;;;;;;;;;;;4955908;28;20016;-54
2022/12/22 06:19:10;;;;;;;;;;;;;;;;;;4975308;28;20000;-54
2022/12/22 06:21:36;;;;;;;;;;;;;;;;;;4971171;28;19937;-54
2022/12/22 06:24:03;;;;;;;;;;;;;;;;;;4972035;28;19922;-54
2022/12/22 06:26:29;;;;;;;;;;;;;;;;;;4951454;28;19918;-54
2022/12/22 06:28:55;;;;;;;;;;;;;;;;;;4979586;28;19980;-54
2022/12/22 06:31:20;;;;;;;;;;;;;;;;;;4964342;28;19937;-55
2022/12/22 06:33:47;;;;;;;;;;;;;;;;;;4958536;28;20582;-53
2022/12/22 06:36:12;;;;;;;;;;;;;;;;;;4967311;28;19917;-54
2022/12/22 06:38:38;;;;;;;;;;;;;;;;;;4951948;28;19928;-54
2022/12/22 06:41:04;;;;;;;;;;;;;;;;;;4978105;28;20223;-53
2022/12/22 06:43:30;;;;;;;;;;;;;;;;;;4993233;28;19933;-53
2022/12/22 06:45:56;;;;;;;;;;;;;;;;;;4987763;28;19925;-54
2022/12/22 06:48:22;;;;;;;;;;;;;;;;;;4980552;28;19926;-54
2022/12/22 06:50:48;;;;;;;;;;;;;;;;;;4982919;28;19964;-54
2022/12/22 06:53:14;;;;;;;;;;;;;;;;;;4978885;28;19925;-54
2022/12/22 06:55:39;;;;;;;;;;;;;;;;;;4978485;28;20316;-53
2022/12/22 06:58:05;;;;;;;;;;;;;;;;;;4993825;28;19926;-53
2022/12/22 07:00:31;;;;;;;;;;;;;;;;;;4972059;28;19929;-53
2022/12/22 07:02:57;;;;;;;;;;;;;;;;;;4953690;28;19981;-54
2022/12/22 07:05:23;;;;;;;;;;;;;;;;;;4946569;28;20638;-53
2022/12/22 07:07:49;;;;;;;;;;;;;;;;;;4958739;28;20529;-53
2022/12/22 07:10:15;;;;;;;;;;;;;;;;;;4984175;28;20383;-53
2022/12/22 07:12:41;;;;;;;;;;;;;;;;;;4963417;28;21001;-53
2022/12/22 07:15:06;;;;;;;;;;;;;;;;;;4973310;28;19913;-53
2022/12/22 07:17:32;;;;;;;;;;;;;;;;;;4956233;28;19968;-53
2022/12/22 07:19:58;;;;;;;;;;;;;;;;;;4969150;28;19919;-53
2022/12/22 07:22:24;;;;;;;;;;;;;;;;;;4952971;28;20290;-53
2022/12/22 07:24:50;;;;;;;;;;;;;;;;;;4974501;28;19926;-53
2022/12/22 07:27:16;;;;;;;;;;;;;;;;;;4971777;28;19913;-53
2022/12/22 07:29:42;;;;;;;;;;;;;;;;;;4956664;28;19981;-54
2022/12/22 07:32:08;;;;;;;;;;;;;;;;;;4994621;28;20028;-54
2022/12/22 07:34:33;;;;;;;;;;;;;;;;;;4976281;28;19960;-54
2022/12/22 07:36:59;;;;;;;;;;;;;;;;;;4975476;28;19926;-53
2022/12/22 07:39:25;;;;;;;;;;;;;;;;;;4972795;28;19983;-54
2022/12/22 07:44:36;;;;;;;;;;;;;;;;;;4992913;28;20405;-54
2022/12/22 07:47:01;;;;;;;;;;;;;;;;;;4983115;28;19925;-54
2022/12/22 07:52:12;;;;;;;;;;;;;;;;;;4987219;28;19936;-53
2022/12/22 07:54:38;;;;;;;;;;;;;;;;;;4982544;28;20425;-53
2022/12/22 07:57:04;;;;;;;;;;;;;;;;;;4974120;28;19961;-53
2022/12/22 07:59:30;;;;;;;;;;;;;;;;;;4976513;28;20363;-53
2022/12/22 08:01:56;;;;;;;;;;;;;;;;;;4986127;28;19914;-54
2022/12/22 08:04:22;;;;;;;;;;;;;;;;;;4986557;28;19930;-53
2022/12/22 08:06:47;;;;;;;;;;;;;;;;;;4966733;28;20374;-54
2022/12/22 08:09:13;;;;;;;;;;;;;;;;;;4981686;28;20011;-53
2022/12/22 08:11:39;;;;;;;;;;;;;;;;;;4990907;28;19925;-53
2022/12/22 08:14:05;;;;;;;;;;;;;;;;;;4984368;28;19944;-52
2022/12/22 08:16:31;;;;;;;;;;;;;;;;;;5004779;28;19921;-51
2022/12/22 08:18:57;;;;;;;;;;;;;;;;;;5004126;28;19967;-52
2022/12/22 08:21:23;;;;;;;;;;;;;;;;;;4990053;28;19932;-52
2022/12/22 08:23:48;;;;;;;;;;;;;;;;;;4989971;28;19965;-53
2022/12/22 08:26:14;;;;;;;;;;;;;;;;;;5006116;28;19921;-53
2022/12/22 08:28:40;;;;;;;;;;;;;;;;;;5005458;28;20311;-54
2022/12/22 08:31:06;;;;;;;;;;;;;;;;;;4991907;28;19922;-53
2022/12/22 08:33:32;;;;;;;;;;;;;;;;;;4987256;28;19925;-53
2022/12/22 08:35:58;;;;;;;;;;;;;;;;;;4998557;28;20285;-53
2022/12/22 08:38:24;;;;;;;;;;;;;;;;;;4984889;28;20371;-53
2022/12/22 08:40:50;;;;;;;;;;;;;;;;;;4980913;28;20060;-53
2022/12/22 08:43:15;;;;;;;;;;;;;;;;;;4991852;28;19917;-54
2022/12/22 08:45:41;;;;;;;;;;;;;;;;;;4970529;28;19922;-53
2022/12/22 08:48:07;;;;;;;;;;;;;;;;;;4972770;28;19921;-52
2022/12/22 08:50:33;;;;;;;;;;;;;;;;;;4984916;28;20450;-53
2022/12/22 08:52:59;;;;;;;;;;;;;;;;;;5000031;28;19929;-52
2022/12/22 08:55:25;;;;;;;;;;;;;;;;;;4988281;28;19917;-53
2022/12/22 08:57:51;;;;;;;;;;;;;;;;;;4981561;28;19927;-52
2022/12/22 09:00:16;;;;;;;;;;;;;;;;;;5000454;28;19921;-53
2022/12/22 09:02:42;;;;;;;;;;;;;;;;;;5004563;28;20424;-52
2022/12/22 09:05:08;;;;;;;;;;;;;;;;;;4982678;28;19929;-52
2022/12/22 09:07:34;;;;;;;;;;;;;;;;;;4983817;28;19943;-51
2022/12/22 09:10:00;;;;;;;;;;;;;;;;;;4991007;28;19957;-52
2022/12/22 09:12:26;;;;;;;;;;;;;;;;;;4974756;28;20401;-53
2022/12/22 09:14:52;;;;;;;;;;;;;;;;;;4985543;28;19925;-51
2022/12/22 09:17:17;;;;;;;;;;;;;;;;;;4970207;28;19922;-51
2022/12/22 09:19:43;;;;;;;;;;;;;;;;;;4976393;28;19926;-53
2022/12/22 09:22:10;;;;;;;;;;;;;;;;;;4974741;28;20331;-52
2022/12/22 09:24:36;;;;;;;;;;;;;;;;;;4979964;28;20336;-52
2022/12/22 09:27:02;;;;;;;;;;;;;;;;;;4981677;28;19948;-52
2022/12/22 09:29:28;;;;;;;;;;;;;;;;;;4975069;28;19925;-53
2022/12/22 09:31:54;;;;;;;;;;;;;;;;;;4966891;28;19937;-52
2022/12/22 09:34:19;;;;;;;;;;;;;;;;;;4979772;28;20950;-53
2022/12/22 09:36:45;;;;;;;;;;;;;;;;;;4976494;28;19924;-52
2022/12/22 09:39:11;;;;;;;;;;;;;;;;;;4968127;28;20330;-52
2022/12/22 09:41:37;;;;;;;;;;;;;;;;;;4952707;28;19960;-52
2022/12/22 09:44:03;;;;;;;;;;;;;;;;;;4968682;28;19937;-52
2022/12/22 09:46:29;;;;;;;;;;;;;;;;;;4938263;28;20384;-52
2022/12/22 09:48:55;;;;;;;;;;;;;;;;;;4963187;28;20020;-52
2022/12/22 09:51:21;;;;;;;;;;;;;;;;;;4963192;28;19930;-52
2022/12/22 09:53:46;;;;;;;;;;;;;;;;;;4960033;28;19924;-52
2022/12/22 09:56:13;;;;;;;;;;;;;;;;;;4959881;28;19918;-53
2022/12/22 09:58:39;;;;;;;;;;;;;;;;;;4975153;28;19934;-53
2022/12/22 10:01:05;;;;;;;;;;;;;;;;;;4982236;28;20294;-53
2022/12/22 10:03:31;;;;;;;;;;;;;;;;;;4963289;28;19928;-52
2022/12/22 10:05:57;;;;;;;;;;;;;;;;;;4993206;28;20071;-53
2022/12/22 10:08:22;;;;;;;;;;;;;;;;;;4978701;28;20738;-51
2022/12/22 10:10:48;;;;;;;;;;;;;;;;;;4988905;28;19925;-52
2022/12/22 10:13:14;;;;;;;;;;;;;;;;;;4996493;28;20027;-53
2022/12/22 10:15:40;;;;;;;;;;;;;;;;;;5008309;28;20282;-52
2022/12/22 10:18:06;;;;;;;;;;;;;;;;;;5002602;28;19921;-52
2022/12/22 10:20:32;;;;;;;;;;;;;;;;;;4997791;28;19921;-51
2022/12/22 10:22:58;;;;;;;;;;;;;;;;;;4999414;28;20394;-53
2022/12/22 10:25:25;;;;;;;;;;;;;;;;;;4997183;28;19928;-52
2022/12/22 10:27:51;;;;;;;;;;;;;;;;;;4978108;28;20441;-53
2022/12/22 10:30:17;;;;;;;;;;;;;;;;;;4986568;28;19939;-52
2022/12/22 10:32:43;;;;;;;;;;;;;;;;;;5006168;28;19925;-51
2022/12/22 10:35:08;;;;;;;;;;;;;;;;;;4965575;28;20013;-51
2022/12/22 10:37:34;;;;;;;;;;;;;;;;;;4993060;28;20390;-52
2022/12/22 10:40:00;;;;;;;;;;;;;;;;;;4997100;28;19928;-52
2022/12/22 10:42:26;;;;;;;;;;;;;;;;;;4998653;28;20306;-52
2022/12/22 10:44:52;;;;;;;;;;;;;;;;;;4997734;28;19921;-52
2022/12/22 10:47:22;;;;;;;;;;;;;;;;;;4985219;28;19932;-53
2022/12/22 10:49:48;;;;;;;;;;;;;;;;;;4985442;28;19918;-52
2022/12/22 10:52:14;;;;;;;;;;;;;;;;;;4997199;28;19929;-51
2022/12/22 10:54:41;;;;;;;;;;;;;;;;;;5000604;28;19925;-52
2022/12/22 10:57:07;;;;;;;;;;;;;;;;;;4991151;28;20004;-52
2022/12/22 10:59:33;;;;;;;;;;;;;;;;;;4986008;28;20655;-52
2022/12/22 11:01:59;;;;;;;;;;;;;;;;;;4960686;28;20009;-53
2022/12/22 11:04:25;;;;;;;;;;;;;;;;;;4944484;28;21263;-53
2022/12/22 11:06:50;;;;;;;;;;;;;;;;;;4980370;28;20291;-52
2022/12/22 11:09:16;;;;;;;;;;;;;;;;;;4969664;28;20377;-52
2022/12/22 11:11:42;;;;;;;;;;;;;;;;;;4965205;28;19934;-52
2022/12/22 11:14:08;;;;;;;;;;;;;;;;;;4979627;28;19921;-52
2022/12/22 11:16:34;;;;;;;;;;;;;;;;;;4966122;28;20432;-52
2022/12/22 11:19:00;;;;;;;;;;;;;;;;;;4980190;28;19936;-52
2022/12/22 11:21:26;;;;;;;;;;;;;;;;;;4967381;28;19926;-52
2022/12/22 11:23:52;;;;;;;;;;;;;;;;;;4946369;28;19918;-52
2022/12/22 11:26:18;;;;;;;;;;;;;;;;;;4959090;28;20182;-52
2022/12/22 11:28:44;;;;;;;;;;;;;;;;;;4978382;28;19922;-52
2022/12/22 11:31:10;;;;;;;;;;;;;;;;;;4960439;28;19931;-53
2022/12/22 11:33:35;;;;;;;;;;;;;;;;;;4944137;28;19922;-52
2022/12/22 11:36:03;;;;;;;;;;;;;;;;;;4951699;28;20414;-52
2022/12/22 11:38:29;;;;;;;;;;;;;;;;;;4943713;28;19927;-52
2022/12/22 11:40:55;;;;;;;;;;;;;;;;;;4933110;28;19926;-52
2022/12/22 11:43:21;;;;;;;;;;;;;;;;;;4939813;28;19972;-52
2022/12/22 11:45:47;;;;;;;;;;;;;;;;;;4935386;28;25805;-52
2022/12/22 11:48:13;;;;;;;;;;;;;;;;;;4944122;28;19922;-53
2022/12/22 11:50:39;;;;;;;;;;;;;;;;;;4950249;28;20299;-53
2022/12/22 11:53:05;;;;;;;;;;;;;;;;;;4938648;28;20006;-52
2022/12/22 11:55:30;;;;;;;;;;;;;;;;;;4959302;28;19924;-52
2022/12/22 11:57:56;;;;;;;;;;;;;;;;;;4965873;28;20706;-57
2022/12/22 12:00:22;;;;;;;;;;;;;;;;;;4950968;28;19941;-52
2022/12/22 12:02:48;;;;;;;;;;;;;;;;;;4952002;28;20440;-55
2022/12/22 12:05:14;;;;;;;;;;;;;;;;;;4945049;28;19929;-53
2022/12/22 12:07:40;;;;;;;;;;;;;;;;;;4951976;28;20491;-54
2022/12/22 12:10:06;;;;;;;;;;;;;;;;;;4946317;28;19933;-53
2022/12/22 12:12:32;;;;;;;;;;;;;;;;;;4957020;28;20571;-53
2022/12/22 12:14:58;;;;;;;;;;;;;;;;;;4963670;28;19923;-54
2022/12/22 12:17:23;;;;;;;;;;;;;;;;;;4964812;28;19921;-53
2022/12/22 12:19:49;;;;;;;;;;;;;;;;;;4983598;28;20028;-53
2022/12/22 12:22:15;;;;;;;;;;;;;;;;;;4969571;28;20573;-52
2022/12/22 12:24:41;;;;;;;;;;;;;;;;;;4959525;28;20386;-54
2022/12/22 12:27:07;;;;;;;;;;;;;;;;;;4962948;28;19921;-52
2022/12/22 12:29:33;;;;;;;;;;;;;;;;;;4942736;28;20334;-52
2022/12/22 12:31:59;;;;;;;;;;;;;;;;;;4944963;28;19922;-53
2022/12/22 12:34:25;;;;;;;;;;;;;;;;;;4970902;28;20312;-54
2022/12/22 12:36:50;;;;;;;;;;;;;;;;;;4957675;28;19925;-54
2022/12/22 12:39:16;;;;;;;;;;;;;;;;;;4975016;28;19972;-52
2022/12/22 12:41:42;;;;;;;;;;;;;;;;;;4987224;28;19925;-54
2022/12/22 12:44:08;;;;;;;;;;;;;;;;;;4962332;28;20690;-53
2022/12/22 12:46:34;;;;;;;;;;;;;;;;;;4976603;28;19933;-55
2022/12/22 12:49:00;;;;;;;;;;;;;;;;;;4973576;28;19921;-53
2022/12/22 12:51:26;;;;;;;;;;;;;;;;;;4984902;28;19929;-54
2022/12/22 12:53:51;;;;;;;;;;;;;;;;;;4973648;28;19926;-53
2022/12/22 12:56:17;;;;;;;;;;;;;;;;;;4965658;28;19934;-53
2022/12/22 12:58:43;;;;;;;;;;;;;;;;;;4972082;28;20298;-55
2022/12/22 13:01:09;;;;;;;;;;;;;;;;;;4930570;28;19912;-53
2022/12/22 13:03:35;;;;;;;;;;;;;;;;;;4930813;28;22307;-53
2022/12/22 13:06:01;;;;;;;;;;;;;;;;;;4957158;28;19925;-53
2022/12/22 13:08:28;;;;;;;;;;;;;;;;;;4925378;28;20147;-52
2022/12/22 13:10:54;;;;;;;;;;;;;;;;;;4965991;28;19926;-52
2022/12/22 13:13:20;;;;;;;;;;;;;;;;;;4970273;28;19933;-53
2022/12/22 13:15:45;;;;;;;;;;;;;;;;;;4934577;28;20020;-54
2022/12/22 13:18:11;;;;;;;;;;;;;;;;;;4938872;28;19948;-54
2022/12/22 13:20:37;;;;;;;;;;;;;;;;;;4962753;28;19929;-53
2022/12/22 13:23:03;;;;;;;;;;;;;;;;;;4951860;28;19926;-54
2022/12/22 13:25:29;;;;;;;;;;;;;;;;;;4969169;28;20293;-52
2022/12/22 13:27:55;;;;;;;;;;;;;;;;;;4974284;28;20048;-55
2022/12/22 13:30:21;;;;;;;;;;;;;;;;;;4979933;28;19926;-53
2022/12/22 13:32:47;;;;;;;;;;;;;;;;;;4959620;28;20366;-53
2022/12/22 13:35:13;;;;;;;;;;;;;;;;;;4960999;28;20019;-52
2022/12/22 13:37:38;;;;;;;;;;;;;;;;;;4962149;28;19926;-53
2022/12/22 13:40:04;;;;;;;;;;;;;;;;;;4962297;28;20028;-53
2022/12/22 13:42:30;;;;;;;;;;;;;;;;;;4963642;28;20411;-53
2022/12/22 13:44:56;;;;;;;;;;;;;;;;;;4982588;28;19917;-52
2022/12/22 13:47:22;;;;;;;;;;;;;;;;;;4935758;28;19929;-53
2022/12/22 13:49:48;;;;;;;;;;;;;;;;;;4933591;28;19926;-53
2022/12/22 13:52:14;;;;;;;;;;;;;;;;;;4934696;28;19989;-53
2022/12/22 13:54:40;;;;;;;;;;;;;;;;;;4941547;28;19930;-52
2022/12/22 13:57:05;;;;;;;;;;;;;;;;;;4945006;28;19924;-52
2022/12/22 13:59:31;;;;;;;;;;;;;;;;;;4953045;28;20533;-52
2022/12/22 14:01:57;;;;;;;;;;;;;;;;;;4934305;28;19941;-53
2022/12/22 14:04:23;;;;;;;;;;;;;;;;;;4932366;28;19929;-52
2022/12/22 14:06:49;;;;;;;;;;;;;;;;;;4942462;28;20182;-53
2022/12/22 14:09:15;;;;;;;;;;;;;;;;;;4952014;28;20012;-53
2022/12/22 14:11:41;;;;;;;;;;;;;;;;;;4964481;28;19929;-52
2022/12/22 14:14:07;;;;;;;;;;;;;;;;;;4963570;28;19918;-52
2022/12/22 14:16:33;;;;;;;;;;;;;;;;;;4975898;28;19925;-52
2022/12/22 14:18:59;;;;;;;;;;;;;;;;;;4959872;28;19980;-53
2022/12/22 14:21:25;;;;;;;;;;;;;;;;;;4958507;28;20303;-52
2022/12/22 14:23:50;;;;;;;;;;;;;;;;;;4962390;28;19933;-53
2022/12/22 14:26:16;;;;;;;;;;;;;;;;;;4973641;28;19922;-53
2022/12/22 14:28:48;;;;;;;;;;;;;;;;;;4950032;28;20453;-53
2022/12/22 14:31:14;;;;;;;;;;;;;;;;;;4963030;28;20611;-52
2022/12/22 14:33:40;;;;;;;;;;;;;;;;;;4938788;28;19922;-53
2022/12/22 14:36:06;;;;;;;;;;;;;;;;;;4955553;28;19933;-53
2022/12/22 14:38:32;;;;;;;;;;;;;;;;;;4949677;28;19992;-53
2022/12/22 14:40:58;;;;;;;;;;;;;;;;;;4958308;28;20363;-54
2022/12/22 14:43:24;;;;;;;;;;;;;;;;;;4958078;28;19981;-52
2022/12/22 14:45:49;;;;;;;;;;;;;;;;;;4934375;28;20190;-52
2022/12/22 14:48:15;;;;;;;;;;;;;;;;;;4948014;28;19933;-52
2022/12/22 14:50:41;;;;;;;;;;;;;;;;;;4937516;28;19922;-52
2022/12/22 14:53:07;;;;;;;;;;;;;;;;;;4951374;28;19934;-53
2022/12/22 14:55:33;;;;;;;;;;;;;;;;;;4985991;28;19927;-52
2022/12/22 14:57:59;;;;;;;;;;;;;;;;;;4970709;28;20543;-52
2022/12/22 15:00:25;;;;;;;;;;;;;;;;;;4956551;28;19917;-53
2022/12/22 15:02:51;;;;;;;;;;;;;;;;;;4981393;28;20304;-53
2022/12/22 15:05:17;;;;;;;;;;;;;;;;;;4952193;28;20342;-53
2022/12/22 15:07:43;;;;;;;;;;;;;;;;;;4956784;28;19933;-52
2022/12/22 15:10:09;;;;;;;;;;;;;;;;;;4965174;28;20409;-52
2022/12/22 15:12:34;;;;;;;;;;;;;;;;;;4963588;28;19937;-53
2022/12/22 15:15:00;;;;;;;;;;;;;;;;;;4965845;28;20043;-53
2022/12/22 15:17:26;;;;;;;;;;;;;;;;;;4963760;28;19945;-52
2022/12/22 15:19:53;;;;;;;;;;;;;;;;;;4937782;28;19937;-53
2022/12/22 15:22:19;;;;;;;;;;;;;;;;;;4962219;28;20059;-52
2022/12/22 15:24:45;;;;;;;;;;;;;;;;;;4961651;28;20371;-53
2022/12/22 15:27:11;;;;;;;;;;;;;;;;;;4961707;28;19930;-54
2022/12/22 15:29:37;;;;;;;;;;;;;;;;;;4964363;28;19933;-52
2022/12/22 15:32:03;;;;;;;;;;;;;;;;;;4953125;28;19930;-53
2022/12/22 15:34:29;;;;;;;;;;;;;;;;;;4971136;28;20266;-53
2022/12/22 15:36:55;;;;;;;;;;;;;;;;;;4946874;28;19927;-53
2022/12/22 15:39:21;;;;;;;;;;;;;;;;;;4954789;28;19932;-52
2022/12/22 15:41:47;;;;;;;;;;;;;;;;;;4962970;28;19929;-53
2022/12/22 15:44:13;;;;;;;;;;;;;;;;;;4968231;28;20334;-54
2022/12/22 15:46:38;;;;;;;;;;;;;;;;;;4968641;28;20064;-53
2022/12/22 15:49:04;;;;;;;;;;;;;;;;;;4966091;28;22453;-53
2022/12/22 15:51:30;;;;;;;;;;;;;;;;;;4958767;28;19936;-53
2022/12/22 15:53:56;;;;;;;;;;;;;;;;;;4959336;28;20365;-52
2022/12/22 15:56:22;;;;;;;;;;;;;;;;;;4978672;28;19914;-53
2022/12/22 15:58:48;;;;;;;;;;;;;;;;;;4958812;28;19935;-52
2022/12/22 16:01:14;;;;;;;;;;;;;;;;;;4947704;28;19919;-53
2022/12/22 16:03:40;;;;;;;;;;;;;;;;;;4945951;28;19933;-53
2022/12/22 16:06:07;;;;;;;;;;;;;;;;;;4912285;28;20562;-53
2022/12/22 16:08:33;;;;;;;;;;;;;;;;;;4953183;28;20944;-53
2022/12/22 16:10:59;;;;;;;;;;;;;;;;;;4936899;28;19925;-53
2022/12/22 16:13:25;;;;;;;;;;;;;;;;;;4965665;28;20378;-53
2022/12/22 16:15:51;;;;;;;;;;;;;;;;;;4947053;28;19930;-53
2022/12/22 16:18:17;;;;;;;;;;;;;;;;;;4944196;28;19921;-53
2022/12/22 16:20:43;;;;;;;;;;;;;;;;;;4946935;28;19926;-53
2022/12/22 16:23:09;;;;;;;;;;;;;;;;;;4941736;28;20291;-53
2022/12/22 16:25:35;;;;;;;;;;;;;;;;;;4927946;28;19933;-54
2022/12/22 16:28:01;;;;;;;;;;;;;;;;;;4935323;28;19918;-53
2022/12/22 16:30:27;;;;;;;;;;;;;;;;;;4947474;28;19932;-54
2022/12/22 16:32:53;;;;;;;;;;;;;;;;;;4935001;28;26364;-53
2022/12/22 16:35:19;;;;;;;;;;;;;;;;;;4952404;28;20450;-53
2022/12/22 16:37:45;;;;;;;;;;;;;;;;;;4952331;28;19923;-54
2022/12/22 16:40:11;;;;;;;;;;;;;;;;;;4945361;28;19932;-55
2022/12/22 16:42:37;;;;;;;;;;;;;;;;;;4962026;28;19927;-54
2022/12/22 16:45:03;;;;;;;;;;;;;;;;;;4940199;28;20008;-53
2022/12/22 16:47:29;;;;;;;;;;;;;;;;;;4947327;28;19929;-53
2022/12/22 16:49:55;;;;;;;;;;;;;;;;;;4935848;28;19924;-53
2022/12/22 16:52:20;;;;;;;;;;;;;;;;;;4970769;28;19938;-53
2022/12/22 16:54:46;;;;;;;;;;;;;;;;;;4969097;28;19948;-55
2022/12/22 16:57:12;;;;;;;;;;;;;;;;;;4979172;28;20308;-54
2022/12/22 16:59:38;;;;;;;;;;;;;;;;;;4935612;28;19922;-53
2022/12/22 17:02:04;;;;;;;;;;;;;;;;;;4926977;28;20013;-53
2022/12/22 17:04:30;;;;;;;;;;;;;;;;;;4909691;28;20380;-54
2022/12/22 17:06:57;;;;;;;;;;;;;;;;;;4955396;28;19933;-53
2022/12/22 17:09:23;;;;;;;;;;;;;;;;;;4916179;28;19962;-52
2022/12/22 17:11:48;;;;;;;;;;;;;;;;;;4950786;28;19930;-52
2022/12/22 17:14:14;;;;;;;;;;;;;;;;;;4954852;28;20481;-53
2022/12/22 17:16:40;;;;;;;;;;;;;;;;;;4930026;28;20068;-54
2022/12/22 17:19:06;;;;;;;;;;;;;;;;;;4955140;28;20292;-53
2022/12/22 17:21:32;;;;;;;;;;;;;;;;;;4945666;28;20391;-53
2022/12/22 17:24:02;;;;;;;;;;;;;;;;;;4955751;28;19926;-53
2022/12/22 17:26:28;;;;;;;;;;;;;;;;;;4911483;28;19975;-53
2022/12/22 17:28:54;;;;;;;;;;;;;;;;;;4947073;28;19914;-53
2022/12/22 17:31:20;;;;;;;;;;;;;;;;;;4974672;28;19925;-52
2022/12/22 17:33:46;;;;;;;;;;;;;;;;;;4965584;28;20379;-52
2022/12/22 17:36:11;;;;;;;;;;;;;;;;;;4935152;28;19937;-53
2022/12/22 17:38:37;;;;;;;;;;;;;;;;;;4949095;28;20804;-53
2022/12/22 17:41:03;;;;;;;;;;;;;;;;;;4933432;28;20263;-52
2022/12/22 17:43:29;;;;;;;;;;;;;;;;;;4937574;28;19926;-52
2022/12/22 17:45:55;;;;;;;;;;;;;;;;;;4922004;28;20339;-53
2022/12/22 17:48:21;;;;;;;;;;;;;;;;;;4922399;28;19925;-54
2022/12/22 17:50:48;;;;;;;;;;;;;;;;;;4933040;28;20347;-53
2022/12/22 17:53:14;;;;;;;;;;;;;;;;;;4967072;28;20323;-52
2022/12/22 17:55:40;;;;;;;;;;;;;;;;;;4942927;28;19922;-51
2022/12/22 17:58:05;;;;;;;;;;;;;;;;;;4940588;28;19925;-53
2022/12/22 18:00:31;;;;;;;;;;;;;;;;;;4911710;28;20303;-52
2022/12/22 18:02:57;;;;;;;;;;;;;;;;;;4929925;28;19979;-52
2022/12/22 18:05:24;;;;;;;;;;;;;;;;;;4939553;28;19934;-52
2022/12/22 18:07:49;;;;;;;;;;;;;;;;;;4951282;28;19976;-52
2022/12/22 18:10:15;;;;;;;;;;;;;;;;;;4963177;28;19990;-52
2022/12/22 18:12:41;;;;;;;;;;;;;;;;;;4938881;28;19925;-53
2022/12/22 18:15:07;;;;;;;;;;;;;;;;;;4958562;28;20017;-53
2022/12/22 18:17:34;;;;;;;;;;;;;;;;;;4975794;28;20334;-52
2022/12/22 18:20:00;;;;;;;;;;;;;;;;;;4978122;28;19928;-53
2022/12/22 18:22:25;;;;;;;;;;;;;;;;;;4971827;28;20544;-54
2022/12/22 18:24:51;;;;;;;;;;;;;;;;;;4972609;28;20002;-53
2022/12/22 18:27:17;;;;;;;;;;;;;;;;;;4989310;28;19943;-53
2022/12/22 18:29:43;;;;;;;;;;;;;;;;;;4973199;28;20039;-52
2022/12/22 18:32:09;;;;;;;;;;;;;;;;;;4985098;28;19955;-52
2022/12/22 18:34:35;;;;;;;;;;;;;;;;;;4980302;28;20048;-53
2022/12/22 18:37:01;;;;;;;;;;;;;;;;;;4992549;28;20395;-53
2022/12/22 18:39:27;;;;;;;;;;;;;;;;;;4994719;28;19928;-53
2022/12/22 18:41:53;;;;;;;;;;;;;;;;;;5000166;28;19921;-51
2022/12/22 18:44:19;;;;;;;;;;;;;;;;;;4987891;28;20328;-52
2022/12/22 18:46:45;;;;;;;;;;;;;;;;;;4997499;28;20031;-52
2022/12/22 18:49:11;;;;;;;;;;;;;;;;;;4994253;28;19926;-53
2022/12/22 18:51:36;;;;;;;;;;;;;;;;;;4944765;28;19948;-52
2022/12/22 18:54:02;;;;;;;;;;;;;;;;;;4969663;28;19926;-52
2022/12/22 18:56:28;;;;;;;;;;;;;;;;;;4949342;28;19970;-51
2022/12/22 18:58:54;;;;;;;;;;;;;;;;;;4948863;28;19922;-51
2022/12/22 19:01:20;;;;;;;;;;;;;;;;;;4957053;28;19952;-53
2022/12/22 19:03:46;;;;;;;;;;;;;;;;;;4975737;28;19918;-53
2022/12/22 19:06:12;;;;;;;;;;;;;;;;;;4987309;28;20391;-53
2022/12/22 19:08:38;;;;;;;;;;;;;;;;;;4983268;28;19931;-54
2022/12/22 19:11:05;;;;;;;;;;;;;;;;;;4977843;28;20012;-54
2022/12/22 19:13:31;;;;;;;;;;;;;;;;;;4962421;28;21467;-54
2022/12/22 19:15:57;;;;;;;;;;;;;;;;;;4960614;28;19933;-52
2022/12/22 19:18:23;;;;;;;;;;;;;;;;;;4954588;28;19957;-53
2022/12/22 19:20:48;;;;;;;;;;;;;;;;;;4955445;28;20406;-53
2022/12/22 19:23:14;;;;;;;;;;;;;;;;;;4975018;28;19922;-53
2022/12/22 19:25:40;;;;;;;;;;;;;;;;;;4958445;28;20742;-51
2022/12/22 19:28:06;;;;;;;;;;;;;;;;;;4979974;28;20441;-53
2022/12/22 19:30:32;;;;;;;;;;;;;;;;;;4951758;28;20052;-53
2022/12/22 19:33:01;;;;;;;;;;;;;;;;;;4952184;28;19976;-52
2022/12/22 19:35:27;;;;;;;;;;;;;;;;;;4947956;28;20394;-52
2022/12/22 19:37:53;;;;;;;;;;;;;;;;;;4951338;28;19918;-53
2022/12/22 19:40:19;;;;;;;;;;;;;;;;;;4981808;28;20016;-53
2022/12/22 19:42:44;;;;;;;;;;;;;;;;;;4950449;28;19971;-52
2022/12/22 19:45:10;;;;;;;;;;;;;;;;;;4949760;28;21465;-53
2022/12/22 19:47:36;;;;;;;;;;;;;;;;;;4957949;28;19929;-52
2022/12/22 19:50:02;;;;;;;;;;;;;;;;;;4936574;28;20411;-53
2022/12/22 19:52:28;;;;;;;;;;;;;;;;;;4962790;28;19952;-52
2022/12/22 19:54:54;;;;;;;;;;;;;;;;;;4943682;28;19954;-53
2022/12/22 19:57:20;;;;;;;;;;;;;;;;;;4951756;28;19921;-54
2022/12/22 19:59:46;;;;;;;;;;;;;;;;;;4962399;28;19960;-53
2022/12/22 20:02:11;;;;;;;;;;;;;;;;;;4972766;28;20789;-54
2022/12/22 20:04:37;;;;;;;;;;;;;;;;;;4970020;28;19999;-52
2022/12/22 20:07:03;;;;;;;;;;;;;;;;;;4942441;28;19926;-52
2022/12/22 20:09:29;;;;;;;;;;;;;;;;;;4964809;28;19930;-53
2022/12/22 20:11:55;;;;;;;;;;;;;;;;;;4971827;28;20499;-53
2022/12/22 20:14:21;;;;;;;;;;;;;;;;;;4971115;28;19927;-53
2022/12/22 20:16:47;;;;;;;;;;;;;;;;;;4977404;28;19922;-52